Time;durP1;ratioP1;P1;durP2;ratioP2;P2;SDS_P1;SDS_P2;PMS_P1;PMS_P2;Temp;Humidity;BMP_temperature;BMP_pressure;BME280_temperature;BME280_humidity;BME280_pressure;Samples;Min_cycle;Max_cycle;Signal;HPM_P1;HPM_P2
2021/09/29 00:00:00;;;;;;;6.22;5.13;;;13.30;99.90;;;;;;5053220;28;20024;-76
2021/09/29 00:02:25;;;;;;;9.43;5.07;;;13.30;99.90;;;;;;5054050;28;20021;-77
2021/09/29 00:04:51;;;;;;;8.15;5.50;;;13.30;99.90;;;;;;5053766;28;20048;-77
2021/09/29 00:07:16;;;;;;;9.32;5.93;;;13.30;99.90;;;;;;5053087;28;20025;-77
2021/09/29 00:09:42;;;;;;;13.27;5.85;;;13.30;99.90;;;;;;5053673;28;20040;-76
2021/09/29 00:12:08;;;;;;;8.30;6.00;;;13.20;99.90;;;;;;5053360;28;20021;-77
2021/09/29 00:14:34;;;;;;;9.52;5.85;;;13.20;99.90;;;;;;5053238;28;20025;-76
2021/09/29 00:16:59;;;;;;;6.15;5.60;;;13.20;99.90;;;;;;5053622;28;20021;-76
2021/09/29 00:19:25;;;;;;;8.73;5.13;;;13.20;99.90;;;;;;5053682;28;20035;-76
2021/09/29 00:21:50;;;;;;;8.95;5.55;;;13.20;99.90;;;;;;5052826;28;20067;-76
2021/09/29 00:24:16;;;;;;;8.95;5.80;;;13.20;99.90;;;;;;5053171;28;20025;-75
2021/09/29 00:26:41;;;;;;;9.27;5.60;;;13.20;99.90;;;;;;5052954;28;20372;-76
2021/09/29 00:29:07;;;;;;;8.40;5.03;;;13.10;99.90;;;;;;5052628;28;20040;-77
2021/09/29 00:34:45;;;;;;;9.30;6.00;;;13.10;99.90;;;;;;5053599;28;20100;-75
2021/09/29 00:36:45;;;;;;;11.05;6.55;;;13.10;99.90;;;;;;5040374;28;20040;-76
2021/09/29 00:39:12;;;;;;;10.15;6.72;;;13.10;99.90;;;;;;5055638;28;20025;-76
2021/09/29 00:41:39;;;;;;;12.75;6.25;;;13.10;99.90;;;;;;5052211;28;20072;-77
2021/09/29 00:44:05;;;;;;;7.85;6.68;;;13.10;99.90;;;;;;5053015;28;20021;-76
2021/09/29 00:46:32;;;;;;;13.80;6.95;;;13.00;99.90;;;;;;5051347;28;20020;-76
2021/09/29 00:48:58;;;;;;;11.95;6.35;;;13.00;99.90;;;;;;5040885;28;20112;-76
2021/09/29 00:51:24;;;;;;;9.05;6.38;;;12.90;99.90;;;;;;5053691;28;20115;-77
2021/09/29 00:53:52;;;;;;;8.82;6.53;;;12.90;99.90;;;;;;5053601;28;20017;-76
2021/09/29 00:56:21;;;;;;;9.30;7.47;;;12.90;99.90;;;;;;5053025;28;20025;-77
2021/09/29 00:58:47;;;;;;;8.13;6.40;;;12.80;99.90;;;;;;5052566;28;20009;-76
2021/09/29 01:01:13;;;;;;;10.55;6.82;;;12.80;99.90;;;;;;5053128;28;20032;-75
2021/09/29 01:03:40;;;;;;;11.95;6.85;;;12.80;99.90;;;;;;5052133;28;20512;-76
2021/09/29 01:06:11;;;;;;;11.60;7.43;;;12.80;99.90;;;;;;5052537;28;20481;-76
2021/09/29 01:08:41;;;;;;;;;;;12.70;99.90;;;;;;5053368;28;20029;-76
2021/09/29 01:11:19;;;;;;;9.40;6.15;;;12.70;99.90;;;;;;5052382;28;19960;-76
2021/09/29 01:14:13;;;;;;;7.20;6.05;;;12.70;99.90;;;;;;5052263;28;20051;-75
2021/09/29 01:16:40;;;;;;;10.57;6.53;;;12.70;99.90;;;;;;5039986;28;20107;-77
2021/09/29 01:19:35;;;;;;;12.40;6.65;;;12.70;99.90;;;;;;5052589;28;20021;-77
2021/09/29 01:22:18;;;;;;;9.88;6.90;;;12.70;99.90;;;;;;5051111;28;20362;-76
2021/09/29 01:24:54;;;;;;;11.13;7.05;;;12.70;99.90;;;;;;5051583;28;20025;-76
2021/09/29 01:27:22;;;;;;;11.05;7.00;;;12.70;99.90;;;;;;5053430;28;20055;-76
2021/09/29 01:29:51;;;;;;;10.48;6.88;;;12.70;99.90;;;;;;5052194;28;20488;-77
2021/09/29 01:32:19;;;;;;;10.07;6.30;;;12.70;99.90;;;;;;5051601;28;20381;-75
2021/09/29 01:34:46;;;;;;;11.60;6.72;;;12.70;99.90;;;;;;5052137;28;20354;-76
2021/09/29 01:37:12;;;;;;;7.43;5.97;;;12.70;99.90;;;;;;5052243;28;20024;-77
2021/09/29 01:39:38;;;;;;;8.07;6.63;;;12.70;99.90;;;;;;5051847;28;20029;-75
2021/09/29 01:42:04;;;;;;;10.10;6.70;;;12.60;99.90;;;;;;5052586;28;20140;-76
2021/09/29 01:44:31;;;;;;;10.85;7.38;;;12.60;99.90;;;;;;5052495;28;20029;-77
2021/09/29 01:46:58;;;;;;;7.88;6.47;;;12.60;99.90;;;;;;5051392;28;20018;-77
2021/09/29 01:49:30;;;;;;;11.30;6.47;;;12.60;99.90;;;;;;5052090;28;20112;-76
2021/09/29 01:51:57;;;;;;;11.10;6.13;;;12.60;99.90;;;;;;5051167;28;20112;-76
2021/09/29 01:54:25;;;;;;;12.18;6.32;;;12.60;99.90;;;;;;5052549;28;20032;-76
2021/09/29 01:56:52;;;;;;;10.90;6.10;;;12.60;99.90;;;;;;5051928;28;20059;-76
2021/09/29 01:59:18;;;;;;;10.27;6.53;;;12.60;99.90;;;;;;5051880;28;20066;-76
2021/09/29 02:01:43;;;;;;;7.85;6.28;;;12.60;99.90;;;;;;5051885;28;20025;-77
2021/09/29 02:04:11;;;;;;;11.18;6.00;;;12.70;99.90;;;;;;5052143;28;20032;-77
2021/09/29 02:07:03;;;;;;;12.63;5.95;;;12.70;99.90;;;;;;5051699;28;20052;-76
2021/09/29 02:09:29;;;;;;;9.55;6.20;;;12.80;99.90;;;;;;5049390;28;20051;-77
2021/09/29 02:11:56;;;;;;;8.75;7.25;;;12.80;99.90;;;;;;5051884;28;20021;-75
2021/09/29 02:14:23;;;;;;;11.40;6.40;;;12.80;99.90;;;;;;5048780;28;20021;-76
2021/09/29 02:16:51;;;;;;;9.05;5.93;;;12.90;99.90;;;;;;5040903;28;20025;-76
2021/09/29 02:19:17;;;;;;;6.50;5.57;;;12.80;99.90;;;;;;5052090;28;20427;-76
2021/09/29 02:21:43;;;;;;;10.23;6.43;;;12.70;99.90;;;;;;5051299;28;20532;-76
2021/09/29 02:24:09;;;;;;;9.32;5.97;;;12.70;99.90;;;;;;5052109;28;20401;-77
2021/09/29 02:26:36;;;;;;;7.53;5.82;;;12.70;99.90;;;;;;5051959;28;20032;-76
2021/09/29 02:29:02;;;;;;;12.00;5.88;;;12.60;99.90;;;;;;5050996;28;20042;-76
2021/09/29 02:31:28;;;;;;;9.52;6.10;;;12.60;99.90;;;;;;5040628;28;20104;-75
2021/09/29 02:33:54;;;;;;;13.63;6.07;;;12.70;99.90;;;;;;5031984;28;20108;-77
2021/09/29 02:36:20;;;;;;;21.48;7.88;;;12.60;99.90;;;;;;5034946;28;20033;-77
2021/09/29 02:38:45;;;;;;;9.55;5.97;;;12.60;99.90;;;;;;5048360;28;20020;-77
2021/09/29 02:41:12;;;;;;;12.60;5.55;;;12.60;99.90;;;;;;5050919;28;20062;-75
2021/09/29 02:43:38;;;;;;;11.02;6.03;;;12.50;99.90;;;;;;5051917;28;20056;-75
2021/09/29 02:46:04;;;;;;;9.75;6.20;;;12.50;99.90;;;;;;5051784;28;20052;-75
2021/09/29 02:48:30;;;;;;;11.55;5.78;;;12.80;99.90;;;;;;5045439;28;20021;-77
2021/09/29 02:50:56;;;;;;;7.75;6.40;;;12.40;99.90;;;;;;5046538;28;20039;-77
2021/09/29 02:53:22;;;;;;;8.13;5.28;;;12.50;99.90;;;;;;5055374;28;20021;-76
2021/09/29 02:55:50;;;;;;;10.48;5.35;;;12.50;99.90;;;;;;5054773;28;20060;-76
2021/09/29 02:58:16;;;;;;;8.25;5.70;;;12.50;99.90;;;;;;5055425;28;20484;-77
2021/09/29 03:00:42;;;;;;;8.23;5.72;;;12.50;99.90;;;;;;5056345;28;20032;-77
2021/09/29 03:03:09;;;;;;;13.35;5.53;;;12.50;99.90;;;;;;5054796;28;20051;-77
2021/09/29 03:05:35;;;;;;;15.68;5.80;;;12.60;99.90;;;;;;5049366;28;20013;-77
2021/09/29 03:08:00;;;;;;;8.32;5.40;;;12.60;99.90;;;;;;5046866;28;20021;-76
2021/09/29 03:10:26;;;;;;;9.68;5.30;;;12.70;99.90;;;;;;5054145;28;20040;-75
2021/09/29 03:12:51;;;;;;;8.57;5.00;;;12.70;99.90;;;;;;5054602;28;20112;-75
2021/09/29 03:15:17;;;;;;;9.20;5.75;;;12.80;99.90;;;;;;5054868;28;20100;-76
2021/09/29 03:17:43;;;;;;;8.38;5.32;;;12.80;99.90;;;;;;5053755;28;20032;-76
2021/09/29 03:20:09;;;;;;;5.93;4.57;;;12.90;99.90;;;;;;5055010;28;20027;-77
2021/09/29 03:22:34;;;;;;;5.85;4.72;;;12.90;99.90;;;;;;5054941;28;20124;-78
2021/09/29 03:25:00;;;;;;;10.55;5.05;;;12.90;99.90;;;;;;5053812;28;20025;-76
2021/09/29 03:27:25;;;;;;;5.82;4.00;;;13.00;99.90;;;;;;5054441;28;20025;-75
2021/09/29 03:29:51;;;;;;;7.30;4.28;;;13.00;99.90;;;;;;5054296;28;20484;-75
2021/09/29 03:32:19;;;;;;;10.75;5.32;;;13.00;99.90;;;;;;5054021;28;20104;-77
2021/09/29 03:34:45;;;;;;;6.88;4.45;;;13.00;99.90;;;;;;5054283;28;20488;-77
2021/09/29 03:37:11;;;;;;;10.73;4.88;;;13.10;99.90;;;;;;5054710;28;20021;-77
2021/09/29 03:39:36;;;;;;;7.40;4.30;;;13.10;99.90;;;;;;5048965;28;20021;-76
2021/09/29 03:42:02;;;;;;;7.93;4.47;;;13.10;99.90;;;;;;5044738;28;20049;-76
2021/09/29 03:44:29;;;;;;;11.45;5.30;;;13.10;99.90;;;;;;5053555;28;20045;-75
2021/09/29 03:46:54;;;;;;;10.73;4.65;;;13.10;99.90;;;;;;5054365;28;20045;-76
2021/09/29 03:49:20;;;;;;;8.02;4.07;;;13.10;99.90;;;;;;5054370;28;20029;-75
2021/09/29 03:51:45;;;;;;;8.05;4.43;;;13.10;99.90;;;;;;5053248;28;20504;-76
2021/09/29 03:54:11;;;;;;;8.13;4.65;;;13.10;99.90;;;;;;5054520;28;20023;-77
2021/09/29 03:56:36;;;;;;;6.78;3.97;;;13.10;99.90;;;;;;5053986;28;20017;-76
2021/09/29 03:59:02;;;;;;;7.15;4.45;;;13.10;99.90;;;;;;5053103;28;20071;-76
2021/09/29 04:01:27;;;;;;;6.75;4.20;;;13.10;99.90;;;;;;5054172;28;20029;-76
2021/09/29 04:03:53;;;;;;;5.53;3.63;;;13.00;99.90;;;;;;5053548;28;20040;-77
2021/09/29 04:06:18;;;;;;;11.60;4.35;;;13.00;99.90;;;;;;5053207;28;20029;-77
2021/09/29 04:08:44;;;;;;;8.20;4.53;;;13.00;99.90;;;;;;5053836;28;20021;-75
2021/09/29 04:11:10;;;;;;;10.13;4.25;;;13.00;99.90;;;;;;5053956;28;20037;-76
2021/09/29 04:13:36;;;;;;;10.50;4.95;;;13.00;99.90;;;;;;5053163;28;20017;-76
2021/09/29 04:16:02;;;;;;;8.13;3.90;;;13.10;99.90;;;;;;5053833;28;20520;-79
2021/09/29 04:18:28;;;;;;;9.55;4.80;;;13.00;99.90;;;;;;5053584;28;20469;-77
2021/09/29 04:20:54;;;;;;;7.72;3.72;;;13.00;99.90;;;;;;5052909;28;20075;-75
2021/09/29 04:23:20;;;;;;;9.10;4.18;;;13.00;99.90;;;;;;5053667;28;20492;-76
2021/09/29 04:25:48;;;;;;;4.43;3.58;;;12.90;99.90;;;;;;5046573;28;20026;-77
2021/09/29 04:28:14;;;;;;;6.72;3.92;;;12.90;99.90;;;;;;5046297;28;20028;-77
2021/09/29 04:30:40;;;;;;;7.25;3.85;;;12.90;99.90;;;;;;5053171;28;20112;-76
2021/09/29 04:33:06;;;;;;;7.95;4.13;;;12.90;99.90;;;;;;5053314;28;20064;-74
2021/09/29 04:35:31;;;;;;;8.65;4.10;;;12.90;99.90;;;;;;5052718;28;20519;-76
2021/09/29 04:37:57;;;;;;;5.05;3.60;;;12.80;99.90;;;;;;5053110;28;20021;-75
2021/09/29 04:40:22;;;;;;;5.90;4.22;;;12.80;99.90;;;;;;5041888;28;20026;-76
2021/09/29 04:42:49;;;;;;;7.18;4.07;;;12.70;99.90;;;;;;5049994;28;20069;-76
2021/09/29 04:45:14;;;;;;;7.63;4.03;;;12.70;99.90;;;;;;5053592;28;20048;-76
2021/09/29 04:47:40;;;;;;;10.13;4.80;;;12.70;99.90;;;;;;5052068;28;20021;-74
2021/09/29 04:50:06;;;;;;;6.45;4.13;;;12.70;99.90;;;;;;5052770;28;20029;-78
2021/09/29 04:52:32;;;;;;;7.40;4.35;;;12.70;99.90;;;;;;5053288;28;20032;-75
2021/09/29 04:54:58;;;;;;;8.57;3.88;;;12.70;99.90;;;;;;5051948;28;20020;-75
2021/09/29 04:57:23;;;;;;;5.75;3.90;;;12.70;99.90;;;;;;5053000;28;20024;-76
2021/09/29 04:59:49;;;;;;;9.60;3.72;;;12.70;99.90;;;;;;5053146;28;20071;-76
2021/09/29 05:02:15;;;;;;;6.18;3.67;;;12.70;99.90;;;;;;5052529;28;20029;-76
2021/09/29 05:04:43;;;;;;;6.03;3.80;;;12.70;99.90;;;;;;5052862;28;20021;-76
2021/09/29 05:07:17;;;;;;;6.35;4.00;;;12.60;99.90;;;;;;5052782;28;20025;-77
2021/09/29 05:09:44;;;;;;;9.05;3.63;;;12.60;99.90;;;;;;5050914;28;20033;-76
2021/09/29 05:12:27;;;;;;;11.27;3.90;;;12.50;99.90;;;;;;5039501;28;20027;-76
2021/09/29 05:14:54;;;;;;;6.68;3.65;;;12.50;99.90;;;;;;5052388;28;20025;-76
2021/09/29 05:17:19;;;;;;;7.95;4.20;;;12.40;99.90;;;;;;5052335;28;20051;-75
2021/09/29 05:19:45;;;;;;;10.18;4.05;;;12.40;99.90;;;;;;5052540;28;20029;-78
2021/09/29 05:22:11;;;;;;;3.95;3.50;;;12.40;99.90;;;;;;5054944;28;20020;-75
2021/09/29 05:24:39;;;;;;;5.07;3.47;;;12.40;99.90;;;;;;5052793;28;20412;-75
2021/09/29 05:27:05;;;;;;;5.50;3.78;;;12.40;99.90;;;;;;5052245;28;20029;-76
2021/09/29 05:29:31;;;;;;;6.07;3.75;;;12.40;99.90;;;;;;5052518;28;20086;-76
2021/09/29 05:31:58;;;;;;;5.95;3.55;;;12.30;99.90;;;;;;5051536;28;20036;-76
2021/09/29 05:34:24;;;;;;;5.70;3.42;;;12.30;99.90;;;;;;5052444;28;20064;-77
2021/09/29 05:36:53;;;;;;;8.20;4.20;;;12.40;99.90;;;;;;5051151;28;20032;-76
2021/09/29 05:39:18;;;;;;;10.23;3.30;;;12.40;99.90;;;;;;5049765;28;20036;-77
2021/09/29 05:41:44;;;;;;;6.82;3.42;;;12.40;99.90;;;;;;5040500;28;20505;-77
2021/09/29 05:44:10;;;;;;;4.38;3.38;;;12.40;99.90;;;;;;5051468;28;20790;-75
2021/09/29 05:46:35;;;;;;;6.93;3.75;;;12.40;99.90;;;;;;5052279;28;20017;-75
2021/09/29 05:49:02;;;;;;;9.68;3.92;;;12.30;99.90;;;;;;5052111;28;20021;-75
2021/09/29 05:51:28;;;;;;;10.15;3.92;;;12.30;99.90;;;;;;5051498;28;20033;-77
2021/09/29 05:53:54;;;;;;;7.68;3.83;;;12.30;99.90;;;;;;5052097;28;20030;-76
2021/09/29 05:56:20;;;;;;;9.57;3.85;;;12.30;99.90;;;;;;5052300;28;20047;-76
2021/09/29 05:58:46;;;;;;;4.93;3.00;;;12.30;99.90;;;;;;5051197;28;20025;-77
2021/09/29 06:01:12;;;;;;;10.63;3.22;;;12.40;99.90;;;;;;5052166;28;20041;-77
2021/09/29 06:03:37;;;;;;;9.90;3.58;;;12.40;99.90;;;;;;5045556;28;20022;-76
2021/09/29 06:06:03;;;;;;;7.72;3.08;;;12.50;99.90;;;;;;5043872;28;20048;-75
2021/09/29 06:08:28;;;;;;;7.10;3.10;;;12.60;99.90;;;;;;5052069;28;20024;-76
2021/09/29 06:10:54;;;;;;;4.45;3.13;;;12.70;99.90;;;;;;5051876;28;20060;-76
2021/09/29 06:13:20;;;;;;;8.43;3.47;;;12.70;99.90;;;;;;5051424;28;20025;-76
2021/09/29 06:15:46;;;;;;;5.07;2.70;;;12.70;99.90;;;;;;5051876;28;20036;-76
2021/09/29 06:18:13;;;;;;;7.20;2.85;;;12.80;99.90;;;;;;5051968;28;20469;-76
2021/09/29 06:20:43;;;;;;;6.28;2.90;;;12.90;99.90;;;;;;5051377;28;20094;-76
2021/09/29 06:23:09;;;;;;;10.85;3.35;;;12.90;99.90;;;;;;5052299;28;20029;-76
2021/09/29 06:25:35;;;;;;;8.90;3.78;;;13.00;99.90;;;;;;5054755;28;20094;-75
2021/09/29 06:28:01;;;;;;;8.82;2.85;;;13.00;99.90;;;;;;5055021;28;20043;-76
2021/09/29 06:30:26;;;;;;;8.02;4.20;;;13.10;99.90;;;;;;5051934;28;20520;-75
2021/09/29 06:32:52;;;;;;;5.10;2.97;;;13.10;99.90;;;;;;5035153;28;20021;-76
2021/09/29 06:35:17;;;;;;;4.38;2.78;;;13.20;99.90;;;;;;5034326;28;20048;-75
2021/09/29 06:37:44;;;;;;;7.32;3.00;;;13.20;99.90;;;;;;5035741;28;20079;-74
2021/09/29 06:40:12;;;;;;;5.97;2.42;;;13.20;99.90;;;;;;5033756;28;20033;-74
2021/09/29 06:42:38;;;;;;;12.27;2.78;;;13.30;99.90;;;;;;5034508;28;20054;-75
2021/09/29 06:45:06;;;;;;;5.75;2.85;;;13.30;99.90;;;;;;5037349;28;20104;-77
2021/09/29 06:47:32;;;;;;;4.63;2.75;;;13.20;99.90;;;;;;5034092;28;20027;-77
2021/09/29 06:49:57;;;;;;;5.70;3.13;;;13.30;99.90;;;;;;5034565;28;20041;-77
2021/09/29 06:52:23;;;;;;;6.10;2.90;;;13.20;99.90;;;;;;5034999;28;20113;-75
2021/09/29 06:54:48;;;;;;;5.68;3.20;;;13.20;99.90;;;;;;5037637;28;20029;-75
2021/09/29 06:57:14;;;;;;;11.70;2.95;;;13.20;99.90;;;;;;5034813;28;20041;-75
2021/09/29 06:59:40;;;;;;;9.07;3.03;;;13.20;99.90;;;;;;5040244;28;20393;-74
2021/09/29 07:02:06;;;;;;;4.72;3.50;;;13.20;99.90;;;;;;5033870;28;20478;-74
2021/09/29 07:04:31;;;;;;;8.82;3.28;;;13.10;99.90;;;;;;5034477;28;20458;-74
2021/09/29 07:06:57;;;;;;;5.35;2.78;;;13.10;99.90;;;;;;5034220;28;20037;-74
2021/09/29 07:09:23;;;;;;;6.38;3.95;;;13.20;99.90;;;;;;5041767;28;20044;-74
2021/09/29 07:11:48;;;;;;;4.47;2.67;;;13.20;99.90;;;;;;5051906;28;20383;-75
2021/09/29 07:14:14;;;;;;;4.68;2.80;;;13.20;99.90;;;;;;5053657;28;20461;-75
2021/09/29 07:16:39;;;;;;;4.18;2.55;;;13.10;99.90;;;;;;5053221;28;20079;-75
2021/09/29 07:19:05;;;;;;;8.90;3.17;;;13.20;99.90;;;;;;5052239;28;20024;-77
2021/09/29 07:21:30;;;;;;;6.32;2.80;;;13.20;99.90;;;;;;5049846;28;20075;-75
2021/09/29 07:23:56;;;;;;;9.15;3.90;;;13.30;99.90;;;;;;5049028;28;20527;-76
2021/09/29 07:26:23;;;;;;;8.05;3.33;;;13.20;99.90;;;;;;5052393;28;20032;-77
2021/09/29 07:28:49;;;;;;;10.25;2.92;;;13.20;99.90;;;;;;5048389;28;20135;-77
2021/09/29 07:31:15;;;;;;;4.40;3.17;;;13.20;99.90;;;;;;5052234;28;20061;-76
2021/09/29 07:33:41;;;;;;;4.50;2.70;;;13.30;99.90;;;;;;5050503;28;20017;-76
2021/09/29 07:36:08;;;;;;;7.53;3.00;;;13.20;99.90;;;;;;5047753;28;20078;-76
2021/09/29 07:38:34;;;;;;;6.20;3.08;;;13.20;99.90;;;;;;5046639;28;20074;-77
2021/09/29 07:40:59;;;;;;;7.00;3.35;;;13.20;99.90;;;;;;5050955;28;20120;-78
2021/09/29 07:43:26;;;;;;;4.53;3.20;;;13.20;99.90;;;;;;5053087;28;20120;-76
2021/09/29 07:45:51;;;;;;;6.63;3.95;;;13.20;99.90;;;;;;5046536;28;20104;-76
2021/09/29 07:48:17;;;;;;;8.77;3.75;;;13.20;99.90;;;;;;5047559;28;20136;-76
2021/09/29 07:50:42;;;;;;;5.75;3.40;;;13.20;99.90;;;;;;5050371;28;20063;-76
2021/09/29 07:53:08;;;;;;;8.20;3.70;;;13.10;99.90;;;;;;5050907;28;20025;-76
2021/09/29 07:55:34;;;;;;;6.35;3.53;;;13.20;99.90;;;;;;5052684;28;20029;-78
2021/09/29 07:57:59;;;;;;;3.20;2.35;;;13.00;99.90;;;;;;5044128;28;20159;-76
2021/09/29 08:00:25;;;;;;;7.05;1.77;;;13.20;99.90;;;;;;5042783;28;20132;-76
2021/09/29 08:02:52;;;;;;;2.63;1.20;;;13.10;99.90;;;;;;5050604;28;20017;-76
2021/09/29 08:05:19;;;;;;;1.48;0.82;;;13.10;99.90;;;;;;5045790;28;20033;-77
2021/09/29 08:07:50;;;;;;;0.85;0.75;;;13.00;99.90;;;;;;5050426;28;20483;-77
2021/09/29 08:10:16;;;;;;;1.52;0.73;;;12.90;99.90;;;;;;5049997;28;20047;-76
2021/09/29 08:12:45;;;;;;;2.50;1.50;;;12.90;99.90;;;;;;5057247;28;20410;-78
2021/09/29 08:15:15;;;;;;;3.13;1.52;;;12.80;99.90;;;;;;5048166;28;20081;-78
2021/09/29 08:17:42;;;;;;;2.25;1.30;;;12.90;99.90;;;;;;5052697;28;20043;-78
2021/09/29 08:20:10;;;;;;;5.65;1.23;;;12.90;99.90;;;;;;5036357;28;20034;-78
2021/09/29 08:22:38;;;;;;;3.03;1.13;;;12.90;99.90;;;;;;5033548;28;20021;-79
2021/09/29 08:30:37;;;;;;;1.00;0.90;;;13.00;99.90;;;;;;5036631;28;20557;-79
2021/09/29 08:35:55;;;;;;;3.30;0.90;;;13.00;99.90;;;;;;5047774;28;20029;-77
2021/09/29 08:38:32;;;;;;;3.22;0.80;;;13.00;99.90;;;;;;5036316;28;20034;-80
2021/09/29 08:41:18;;;;;;;1.00;0.73;;;12.90;99.90;;;;;;5048939;28;20063;-79
2021/09/29 08:43:54;;;;;;;1.45;0.70;;;12.90;99.90;;;;;;5050231;28;20124;-80
2021/09/29 08:49:57;;;;;;;2.08;0.70;;;12.80;99.90;;;;;;5043326;28;20495;-81
2021/09/29 09:16:31;;;;;;;5.88;1.05;;;12.70;99.90;;;;;;5048843;28;20034;-81
2021/09/29 09:19:03;;;;;;;2.65;0.70;;;12.70;99.90;;;;;;5037728;28;20022;-80
2021/09/29 09:21:33;;;;;;;1.20;0.43;;;12.70;99.90;;;;;;5041931;28;20033;-82
2021/09/29 09:23:59;;;;;;;4.13;0.80;;;12.70;99.90;;;;;;5044923;28;20094;-82
2021/09/29 09:26:31;;;;;;;4.57;0.80;;;12.70;99.90;;;;;;5049610;28;20480;-81
2021/09/29 09:29:08;;;;;;;3.65;0.80;;;12.60;99.90;;;;;;5045684;28;20028;-81
2021/09/29 09:31:36;;;;;;;4.10;0.93;;;12.60;99.90;;;;;;5048389;28;20033;-81
2021/09/29 09:34:05;;;;;;;1.63;0.80;;;12.60;99.90;;;;;;5048306;28;20202;-82
2021/09/29 09:36:37;;;;;;;2.88;0.73;;;12.60;99.90;;;;;;5044927;28;20036;-81
2021/09/29 09:39:11;;;;;;;2.53;0.95;;;12.60;99.90;;;;;;5045203;28;20481;-80
2021/09/29 09:41:37;;;;;;;2.17;0.88;;;12.60;99.90;;;;;;5048984;28;20485;-81
2021/09/29 09:44:05;;;;;;;8.88;1.08;;;13.10;99.90;;;;;;5050099;28;20047;-81
2021/09/29 09:46:30;;;;;;;4.65;0.95;;;12.70;99.90;;;;;;5047454;28;20032;-75
2021/09/29 09:48:59;;;;;;;3.53;1.05;;;12.60;99.90;;;;;;5048781;28;20021;-74
2021/09/29 09:51:24;;;;;;;2.45;1.20;;;12.60;99.90;;;;;;5043936;28;20107;-68
2021/09/29 09:53:55;;;;;;;3.53;1.10;;;12.50;99.90;;;;;;5048231;28;20108;-74
2021/09/29 09:56:29;;;;;;;4.22;1.50;;;12.50;99.90;;;;;;5045996;28;20427;-74
2021/09/29 09:58:56;;;;;;;2.67;1.02;;;12.50;99.90;;;;;;5045721;28;20033;-75
2021/09/29 10:01:23;;;;;;;3.53;0.93;;;12.40;99.90;;;;;;5049160;28;20036;-75
2021/09/29 10:03:50;;;;;;;4.38;1.55;;;12.40;99.90;;;;;;5051699;28;20354;-76
2021/09/29 10:06:19;;;;;;;3.10;1.08;;;12.40;99.90;;;;;;5049913;28;20037;-77
2021/09/29 10:08:50;;;;;;;5.68;0.98;;;12.40;99.90;;;;;;5051319;28;20009;-75
2021/09/29 10:11:19;;;;;;;1.88;0.80;;;12.40;99.90;;;;;;5050927;28;20037;-75
2021/09/29 10:27:56;;;;;;;4.85;1.17;;;12.20;99.90;;;;;;5049786;28;20028;-76
2021/09/29 10:30:52;;;;;;;3.17;1.15;;;12.30;99.90;;;;;;5049423;28;20037;-75
2021/09/29 10:33:23;;;;;;;4.65;1.23;;;12.40;99.90;;;;;;5046921;28;20021;-76
2021/09/29 10:44:44;;;;;;;3.22;1.30;;;12.90;99.90;;;;;;5051810;28;20032;-74
2021/09/29 10:47:33;;;;;;;3.45;1.48;;;13.10;99.90;;;;;;5051591;28;20033;-75
2021/09/29 11:04:32;;;;;;;2.78;1.60;;;14.20;99.90;;;;;;5049528;28;20098;-76
2021/09/29 11:07:18;;;;;;;2.67;1.10;;;14.30;99.90;;;;;;5048489;28;20032;-76
2021/09/29 11:10:54;;;;;;;2.38;1.00;;;14.40;99.90;;;;;;5049127;28;20543;-76
2021/09/29 11:32:02;;;;;;;2.47;1.00;;;14.80;99.90;;;;;;5052735;28;20029;-77
2021/09/29 11:34:31;;;;;;;5.72;0.95;;;14.80;99.90;;;;;;5048692;28;20029;-77
2021/09/29 11:48:33;;;;;;;5.07;0.90;;;14.90;99.90;;;;;;5023153;28;20075;-77
2021/09/29 12:11:24;;;;;;;2.65;0.75;;;15.60;99.90;;;;;;5046718;28;20099;-79
2021/09/29 12:16:37;;;;;;;5.35;0.90;;;15.70;99.90;;;;;;5052023;28;20025;-77
2021/09/29 12:19:05;;;;;;;4.25;0.90;;;15.90;99.90;;;;;;5052998;28;20016;-79
2021/09/29 12:21:43;;;;;;;3.60;0.68;;;16.00;99.90;;;;;;5050458;28;20052;-77
2021/09/29 12:24:12;;;;;;;2.45;0.60;;;16.20;99.90;;;;;;5041785;28;20354;-78
2021/09/29 12:26:53;;;;;;;2.15;0.90;;;16.20;99.90;;;;;;5038131;28;20417;-76
2021/09/29 12:29:27;;;;;;;2.67;0.93;;;16.10;99.90;;;;;;5033901;28;20021;-76
2021/09/29 12:32:08;;;;;;;3.72;0.45;;;15.90;99.90;;;;;;5047470;28;20040;-76
2021/09/29 12:34:47;;;;;;;1.70;0.57;;;15.70;99.90;;;;;;5043266;28;20018;-76
2021/09/29 12:37:16;;;;;;;4.63;0.77;;;15.40;99.90;;;;;;5036725;28;20044;-76
2021/09/29 12:39:43;;;;;;;5.35;0.90;;;15.30;99.90;;;;;;5046371;28;20465;-75
2021/09/29 12:42:09;;;;;;;1.75;0.80;;;15.20;99.90;;;;;;5033012;28;20037;-76
2021/09/29 12:44:48;;;;;;;1.73;0.80;;;15.40;99.90;;;;;;5046444;28;20021;-76
2021/09/29 12:47:58;;;;;;;3.85;0.80;;;15.70;99.90;;;;;;5051703;28;20138;-76
2021/09/29 12:50:16;;;;;;;1.17;0.57;;;15.90;99.90;;;;;;5047573;28;20043;-76
2021/09/29 12:52:57;;;;;;;2.65;1.00;;;16.10;99.90;;;;;;5043187;28;20056;-77
2021/09/29 12:55:31;;;;;;;3.58;0.60;;;16.20;99.90;;;;;;5048077;28;20481;-76
2021/09/29 12:57:56;;;;;;;2.72;0.60;;;16.20;99.90;;;;;;5045464;28;20025;-77
2021/09/29 13:00:22;;;;;;;1.65;0.55;;;16.30;99.90;;;;;;5046842;28;20022;-77
2021/09/29 13:02:47;;;;;;;2.20;0.55;;;16.30;99.90;;;;;;5039972;28;20024;-75
2021/09/29 13:05:13;;;;;;;4.53;0.80;;;16.40;99.90;;;;;;5049825;28;20103;-77
2021/09/29 13:07:39;;;;;;;2.22;0.63;;;16.40;99.90;;;;;;5047719;28;20412;-77
2021/09/29 13:10:05;;;;;;;1.60;0.80;;;16.60;99.90;;;;;;5048860;28;20030;-75
2021/09/29 13:12:34;;;;;;;6.15;0.70;;;16.70;99.90;;;;;;5048651;28;20028;-76
2021/09/29 13:15:00;;;;;;;3.05;1.02;;;16.80;99.90;;;;;;5050170;28;20108;-77
2021/09/29 13:17:28;;;;;;;3.33;0.80;;;16.90;99.90;;;;;;5046744;28;20120;-77
2021/09/29 13:19:59;;;;;;;2.72;0.80;;;16.80;99.90;;;;;;5046438;28;20052;-76
2021/09/29 13:22:26;;;;;;;5.05;0.70;;;16.90;99.90;;;;;;5046209;28;20049;-76
2021/09/29 13:25:15;;;;;;;0.98;0.57;;;16.90;99.90;;;;;;5047454;28;20051;-76
2021/09/29 13:38:24;;;;;;;3.97;0.80;;;16.80;99.90;;;;;;5049916;28;20446;-76
2021/09/29 13:40:49;;;;;;;3.85;0.98;;;16.80;99.90;;;;;;5037997;28;20112;-76
2021/09/29 13:43:15;;;;;;;8.93;1.00;;;16.80;99.90;;;;;;5040611;28;20117;-75
2021/09/29 13:45:41;;;;;;;1.25;0.70;;;16.60;99.90;;;;;;5037949;28;20033;-76
2021/09/29 13:48:07;;;;;;;3.72;0.68;;;16.60;99.90;;;;;;5043228;28;20401;-76
2021/09/29 13:50:32;;;;;;;1.10;0.70;;;16.50;99.90;;;;;;5049023;28;20025;-76
2021/09/29 13:52:59;;;;;;;0.68;0.68;;;16.50;99.90;;;;;;5041772;28;20022;-76
2021/09/29 13:55:28;;;;;;;1.88;0.70;;;16.60;99.90;;;;;;5045875;28;20063;-75
2021/09/29 13:58:09;;;;;;;2.45;0.57;;;16.60;99.90;;;;;;5044079;28;20018;-74
2021/09/29 14:01:11;;;;;;;7.45;0.75;;;16.60;99.90;;;;;;5051079;28;20025;-76
2021/09/29 14:28:35;;;;;;;3.00;0.55;;;15.90;99.90;;;;;;5047778;28;20036;-76
2021/09/29 14:31:03;;;;;;;6.72;0.90;;;15.90;99.90;;;;;;5048728;28;20029;-76
2021/09/29 14:33:35;;;;;;;3.05;0.77;;;15.80;99.90;;;;;;5041920;28;21125;-76
2021/09/29 14:36:01;;;;;;;1.58;0.70;;;15.70;99.90;;;;;;5049289;28;20029;-78
2021/09/29 14:38:26;;;;;;;12.95;1.40;;;15.80;99.90;;;;;;5037263;28;20492;-76
2021/09/29 14:40:52;;;;;;;6.53;0.93;;;15.80;99.90;;;;;;5048064;28;20087;-75
2021/09/29 14:43:18;;;;;;;3.20;1.00;;;15.90;99.90;;;;;;5051375;28;20503;-75
2021/09/29 14:45:45;;;;;;;7.28;1.13;;;16.00;99.90;;;;;;5049982;28;20029;-75
2021/09/29 14:48:10;;;;;;;1.92;0.60;;;16.10;99.90;;;;;;5046036;28;20028;-76
2021/09/29 14:50:36;;;;;;;1.45;0.77;;;16.20;99.90;;;;;;5044480;28;20029;-76
2021/09/29 14:53:05;;;;;;;2.63;0.80;;;16.30;99.90;;;;;;5050633;28;20029;-75
2021/09/29 14:55:33;;;;;;;7.22;0.90;;;16.30;99.90;;;;;;5048624;28;20451;-75
2021/09/29 14:57:59;;;;;;;3.50;0.80;;;16.20;99.90;;;;;;5049842;28;20469;-76
2021/09/29 15:00:30;;;;;;;4.05;1.00;;;16.00;99.90;;;;;;5041122;28;20033;-76
2021/09/29 15:02:57;;;;;;;4.43;0.70;;;15.90;99.90;;;;;;5051343;28;20025;-76
2021/09/29 15:05:23;;;;;;;5.03;0.40;;;15.70;99.90;;;;;;5046495;28;20037;-76
2021/09/29 15:07:48;;;;;;;3.13;0.45;;;15.50;99.90;;;;;;5053664;28;20373;-76
2021/09/29 15:10:14;;;;;;;3.55;0.65;;;15.20;99.90;;;;;;5052519;28;20132;-76
2021/09/29 15:12:40;;;;;;;1.25;0.40;;;14.90;99.90;;;;;;5053123;28;20021;-75
2021/09/29 15:20:19;;;;;;;3.47;0.55;;;14.40;99.90;;;;;;5053751;28;20032;-75
2021/09/29 15:23:10;;;;;;;1.23;0.40;;;14.30;99.90;;;;;;5045323;28;20033;-75
2021/09/29 15:50:03;;;;;;;3.90;0.80;;;14.10;99.90;;;;;;5052904;28;20488;-76
2021/09/29 15:54:54;;;;;;;1.58;0.70;;;14.30;99.90;;;;;;5050037;28;20086;-75
2021/09/29 15:57:30;;;;;;;3.30;0.80;;;14.40;99.90;;;;;;5051239;28;20025;-74
2021/09/29 16:02:59;;;;;;;3.53;0.93;;;14.70;99.90;;;;;;5050979;28;20035;-75
2021/09/29 16:05:46;;;;;;;5.35;0.90;;;14.40;99.90;;;;;;5034070;28;20026;-75
2021/09/29 16:08:25;;;;;;;3.33;0.77;;;14.40;99.90;;;;;;5033758;28;20420;-75
2021/09/29 16:16:53;;;;;;;3.42;0.60;;;14.30;99.90;;;;;;5043683;28;20037;-74